Skip Navigation Links
NOAA logo - Click to go to the NOAA homepage
NOAA's National Weather Service
Alaska Aviation Weather Unit
  NWS logo - Click to go to the NWS homepage
Left Navbar Graphic     09 AKDT = 17 GMT

   
NOAA is celebrating 200 years of science, service, and stewardship. Visit the NOAA 200th celebration Web site to learn more.
USA.gov is the U.S. Government's official Web portal to all Federal, state and local government Web resources and services.
Facebook
NWS on Facebook

Important Change Regarding the AAWU Web Presence

 

Over the last several months, the AAWU has been working to navigate its webpages to a nationally supported server. Security, as well as other needs, have necessitated the change.  In the process, we have made an effort to enhance the functionality of our website, as well as some of our products. As of June 20, 2017, aawu.arh.noaa.gov will be discontinued. The new AAWU web address is weather.gov/aawu. It is now live and will run in-parallel with the old site until it is discontinued. Please send any feedback or questions regarding the new webpages to nws.ar.aawu.webauthors@noaa.gov.  Thank you for your patience during this time of transition.
AAWU Home :: Display TAF Add Bookmark
TAF PABE 271302Z 2713/2812 16005KT P6SM SCT150 BKN200
      TEMPO 2713/2715 2SM BR SCT070 BKN200
     FM272000 17008KT P6SM VCSH SCT035 BKN050
     FM280000 22008KT P6SM -SHRA BKN035 OVC050
     FM280500 26005KT P6SM VCSH SCT040 BKN060
     FM280900 31005KT P6SM FEW060 SCT100=
METAR PABE 271153Z 16005KT 10SM SCT120 BKN200 00/00 A2991 RMK AO2 SLP131
     70015 T00000000 10050 21006 56000 $=

METAR PABE 271253Z 15005KT 2SM BR SCT070 BKN200 M01/M01 A2992 RMK
 AO2 SLP133 T10111011 $=

PABE 271300Z 15005KT 1SM R19R/P6000FT BR SCT070 BKN200 M01/M01
A2992=

PABE 271300Z 15005KT 1SM R19R/P6000FT BR SCT070 BKN200 M01/M01
     A2992 RMK AO2 T10111011 $=

PABE 271305Z 16005KT 3SM BR BKN025 OVC200 M01/M01 A2992=

PABE 271305Z 16005KT 3SM BR BKN025 OVC200 M01/M01 A2992 RMK AO2
     T10061006 $=

METAR PABE 271353Z 15004KT 5SM BR BKN023 OVC150 01/01 A2992 RMK AO2
     SLP133 T00060006 $=

SPECI PABE 271409Z 14004KT 7SM SCT025 OVC031 00/00 A2992 RMK AO2
     T00000000 $=

METAR PABE 271453Z 15004KT 9SM FEW023 SCT032 BKN150 00/00 A2992 RMK AO2
     SLP133 T00000000 51001 $=

METAR PABE 271553Z 15004KT 10SM FEW046 FEW150 SCT200 01/01 A2992 RMK AO2
     SLP133 T00060006 $=

METAR PABE 271653Z 14008KT 10SM FEW024 SCT075 03/02 A2992 RMK AO2 SLP135
     T00330022 $=


NOAA's National Weather Service
Alaska Aviation Weather Unit
6930 Sand Lake Road
Anchorage, AK 99502-1845
Disclaimer
Credits
Glossary
Privacy Policy
About Us
Career Opportunities
Contact AAWU Internet Services Site last modified: April, 17th 2012